Aegina II — SW6459 — position and weather

sailwx.info

Track history (hours):
 
Tides and Currents Weather Stations Pressure Air Temp Water Temp Dewpoint Dewpoint Depression Visibility Wind Speed Wind Dir Waves Ship Positions

Aegina II

Last reported at 2018-Apr-23 00:58 UTC. Time now 2018-Apr-23 02:12 UTC.
Position N 37°45' E 023°26'.

Length 53 m; draft 5.5 m.

Type: Tanker. MMSI: 237096700.

Date/timePositionNaut miles runAvg speedWind from/ knotsBaromVisibWave heightAir tempDewpointWater temp
2018-Apr-23 00:58N 37°45' E 023°26'0 0.0
2018-Apr-22 23:57N 37°45' E 023°26'0 0.0
2018-Apr-22 22:17N 37°45' E 023°26'0 0.0
2018-Apr-22 21:59N 37°45' E 023°26'0 0.0
2018-Apr-22 21:29N 37°45' E 023°26'0 0.0
2018-Apr-22 20:56N 37°45' E 023°26'0 0.0
2018-Apr-22 20:24N 37°45' E 023°26'0 0.0
2018-Apr-22 19:58N 37°45' E 023°26'0 0.0
2018-Apr-22 19:28N 37°45' E 023°26'0 0.0
2018-Apr-22 18:58N 37°45' E 023°26'0 0.0
2018-Apr-22 18:28N 37°45' E 023°26'0 0.0
2018-Apr-22 17:58N 37°45' E 023°26'0 0.0
2018-Apr-22 17:28N 37°45' E 023°26'0 0.0
2018-Apr-22 16:49N 37°45' E 023°26'0 0.0
2018-Apr-22 16:25N 37°45' E 023°26'0 0.0
2018-Apr-22 15:59N 37°45' E 023°26'0 0.0
2018-Apr-22 15:30N 37°45' E 023°26'0 0.0
2018-Apr-22 15:00N 37°45' E 023°26'0 0.0
2018-Apr-22 14:27N 37°45' E 023°26'0 0.2
2018-Apr-22 14:00N 37°45' E 023°26'2 3.6
2018-Apr-22 13:30N 37°46' E 023°25'3 5.0
2018-Apr-22 13:00N 37°48' E 023°27'3 5.2
2018-Apr-22 12:30N 37°51' E 023°29'3 5.3
2018-Apr-22 12:00N 37°53' E 023°31'3 5.0
2018-Apr-22 11:30N 37°55' E 023°33'2 4.9
2018-Apr-22 11:00N 37°57' E 023°35'2 4.4
2018-Apr-22 10:30N 37°58' E 023°33'3 5.1
2018-Apr-22 10:00N 38°01' E 023°34'2 3.2
2018-Apr-22 09:29N 38°02' E 023°35'0 0.0
2018-Apr-22 08:57N 38°02' E 023°35'0 0.0
2018-Apr-22 08:27N 38°02' E 023°35'0 0.0
2018-Apr-22 07:59N 38°02' E 023°35'0 0.0
2018-Apr-22 07:28N 38°02' E 023°35'2 3.4
2018-Apr-22 07:00N 38°01' E 023°34'3 6.5
2018-Apr-22 06:30N 37°58' E 023°33'2 4.2
2018-Apr-22 06:01N 37°56' E 023°34'3 6.6
2018-Apr-22 05:31N 37°53' E 023°31'3 6.4
2018-Apr-22 05:00N 37°50' E 023°29'3 6.4
2018-Apr-22 04:30N 37°48' E 023°27'3 6.2
2018-Apr-22 04:00N 37°45' E 023°25'1 1.0
2018-Apr-22 03:28N 37°45' E 023°26'0 0.0
2018-Apr-22 02:55N 37°45' E 023°26'0 0.0
2018-Apr-22 02:28N 37°45' E 023°26'0 0.0
2018-Apr-22 01:55N 37°45' E 023°26'0 0.0
2018-Apr-22 01:28N 37°45' E 023°26'0 0.0
2018-Apr-22 00:40N 37°45' E 023°26'0 0.0
2018-Apr-22 00:20N 37°45' E 023°26'0 0.0
2018-Apr-21 23:56N 37°45' E 023°26'0 0.0
2018-Apr-21 23:26N 37°45' E 023°26'0 0.0
2018-Apr-21 22:59N 37°45' E 023°26'0 0.0
2018-Apr-21 22:17N 37°45' E 023°26'0 0.0
2018-Apr-21 21:32N 37°45' E 023°26'0 0.0
2018-Apr-21 21:21N 37°45' E 023°26'0 0.0
2018-Apr-21 20:57N 37°45' E 023°26'0 0.0
2018-Apr-21 20:29N 37°45' E 023°26'0 0.0
2018-Apr-21 19:58N 37°45' E 023°26'0 0.0
2018-Apr-21 19:27N 37°45' E 023°26'0 0.0
2018-Apr-21 18:51N 37°45' E 023°26'0 0.0
2018-Apr-21 18:27N 37°45' E 023°26'0 0.0
2018-Apr-21 17:57N 37°45' E 023°26'0 0.0
2018-Apr-21 17:27N 37°45' E 023°26'0 0.0
2018-Apr-21 16:58N 37°45' E 023°26'0 0.0
2018-Apr-21 16:28N 37°45' E 023°26'0 0.0
2018-Apr-21 15:36N 37°45' E 023°26'0 0.0
2018-Apr-21 15:24N 37°45' E 023°26'0 0.0
2018-Apr-21 14:30N 37°45' E 023°26'0 0.1
2018-Apr-21 13:57N 37°45' E 023°26'2 3.6
2018-Apr-21 13:30N 37°46' E 023°25'3 5.4
2018-Apr-21 13:00N 37°48' E 023°27'3 5.3
2018-Apr-21 12:30N 37°51' E 023°29'3 5.6
2018-Apr-21 12:00N 37°53' E 023°31'3 5.4
2018-Apr-21 11:30N 37°55' E 023°33'2 4.5
2018-Apr-21 11:00N 37°57' E 023°35'2 4.4
2018-Apr-21 10:30N 37°59' E 023°33'3 5.3
2018-Apr-21 10:00N 38°01' E 023°34'1 1.9
2018-Apr-21 09:25N 38°02' E 023°35'0 0.0
2018-Apr-21 08:59N 38°02' E 023°35'0 0.0
2018-Apr-21 08:25N 38°02' E 023°35'0 0.0
2018-Apr-21 07:59N 38°02' E 023°35'0 0.0
2018-Apr-21 07:26N 38°02' E 023°35'2 4.2
2018-Apr-21 07:00N 38°01' E 023°34'3 6.2
2018-Apr-21 06:31N 37°58' E 023°33'2 4.2
2018-Apr-21 06:00N 37°56' E 023°34'3 6.3
2018-Apr-21 05:30N 37°53' E 023°31'3 6.2
2018-Apr-21 05:00N 37°51' E 023°29'3 6.3
2018-Apr-21 04:30N 37°48' E 023°27'3 5.6
2018-Apr-21 04:00N 37°46' E 023°25'1 2.4
2018-Apr-21 03:29N 37°45' E 023°26'0 0.0
2018-Apr-21 02:58N 37°45' E 023°26'0 0.0
2018-Apr-21 02:28N 37°45' E 023°26'0 0.0
2018-Apr-21 01:56N 37°45' E 023°26'0 0.0
2018-Apr-21 01:30N 37°45' E 023°26'0 0.0
2018-Apr-21 00:54N 37°45' E 023°26'0 0.0
2018-Apr-21 00:25N 37°45' E 023°26'0 0.0
2018-Apr-20 23:55N 37°45' E 023°26'0 0.0
2018-Apr-20 23:25N 37°45' E 023°26'0 0.0
2018-Apr-20 22:56N 37°45' E 023°26'0 0.0
2018-Apr-20 22:26N 37°45' E 023°26'0 0.0
2018-Apr-20 22:00N 37°45' E 023°26'0 0.0
2018-Apr-20 21:25N 37°45' E 023°26'0 0.0
2018-Apr-20 20:55N 37°45' E 023°26'0 0.0
2018-Apr-20 20:25N 37°45' E 023°26'0 0.0
2018-Apr-20 19:57N 37°45' E 023°26'0 0.0
2018-Apr-20 18:32N 37°45' E 023°26'0 0.0
2018-Apr-20 18:14N 37°45' E 023°26'0 0.0
2018-Apr-20 17:59N 37°45' E 023°26'0 0.0
2018-Apr-20 17:23N 37°45' E 023°26'0 0.0
2018-Apr-20 17:00N 37°45' E 023°26'1 1.2
2018-Apr-20 16:31N 37°45' E 023°25'2 4.6
2018-Apr-20 16:00N 37°47' E 023°26'3 5.1
2018-Apr-20 15:30N 37°49' E 023°28'3 5.3
2018-Apr-20 15:01N 37°51' E 023°29'3 5.4
2018-Apr-20 14:30N 37°53' E 023°31'3 5.3
2018-Apr-20 14:00N 37°56' E 023°34'2 3.3
2018-Apr-20 13:31N 37°57' E 023°34'2 4.8
2018-Apr-20 13:01N 37°59' E 023°33'3 5.2
2018-Apr-20 12:30N 38°02' E 023°35'0 0.9
2018-Apr-20 11:58N 38°02' E 023°35'0 0.0
2018-Apr-20 11:29N 38°02' E 023°35'0 0.0
2018-Apr-20 11:00N 38°02' E 023°35'0 0.0
2018-Apr-20 10:30N 38°02' E 023°35'0 0.0
2018-Apr-20 09:58N 38°02' E 023°35'2 4.5
2018-Apr-20 09:30N 38°00' E 023°34'3 5.9
2018-Apr-20 09:00N 37°57' E 023°33'2 4.9
2018-Apr-20 08:30N 37°55' E 023°34'3 5.1
2018-Apr-20 07:59N 37°53' E 023°33'0 0.0
2018-Apr-20 07:29N 37°53' E 023°33'0 0.1
2018-Apr-20 06:58N 37°53' E 023°33'0 0.0
2018-Apr-20 06:26N 37°53' E 023°33'0 0.1
2018-Apr-20 06:00N 37°53' E 023°33'1 3.0
2018-Apr-20 05:30N 37°52' E 023°32'3 5.8
2018-Apr-20 05:01N 37°49' E 023°30'3 5.9
2018-Apr-20 04:30N 37°47' E 023°27'3 5.4
2018-Apr-20 04:01N 37°45' E 023°25'1 1.4
2018-Apr-20 03:25N 37°45' E 023°26'0 0.0
2018-Apr-20 02:55N 37°45' E 023°26'0 0.0
2018-Apr-20 02:23N 37°45' E 023°26'0 0.0
2018-Apr-20 01:58N 37°45' E 023°26'0 0.0
2018-Apr-20 01:25N 37°45' E 023°26'0 0.0
2018-Apr-20 00:59N 37°45' E 023°26'0 0.0
2018-Apr-20 00:29N 37°45' E 023°26'0 0.0
2018-Apr-19 23:53N 37°45' E 023°26'0 0.0
2018-Apr-19 23:29N 37°45' E 023°26'0 0.0
2018-Apr-19 22:59N 37°45' E 023°26'0 0.0
2018-Apr-19 22:29N 37°45' E 023°26'0 0.0
2018-Apr-19 21:59N 37°45' E 023°26'0 0.0
2018-Apr-19 21:29N 37°45' E 023°26'0 0.0
2018-Apr-19 20:57N 37°45' E 023°26'0 0.0
2018-Apr-19 20:30N 37°45' E 023°26'0 0.0
2018-Apr-19 19:55N 37°45' E 023°26'0 0.0
2018-Apr-19 19:28N 37°45' E 023°26'0 0.0
2018-Apr-19 18:52N 37°45' E 023°26'0 0.0
2018-Apr-19 18:28N 37°45' E 023°26'0 0.0
2018-Apr-19 17:52N 37°45' E 023°26'0 0.0
2018-Apr-19 16:55N 37°45' E 023°26'1 3.5
2018-Apr-19 16:30N 37°46' E 023°25'3 5.3
2018-Apr-19 16:00N 37°48' E 023°27'3 5.1
2018-Apr-19 15:30N 37°50' E 023°30'3 5.2
2018-Apr-19 15:00N 37°51' E 023°32'1 1.7
2018-Apr-19 14:27N 37°52' E 023°33'0 0.0
2018-Apr-19 13:58N 37°52' E 023°33'0 0.0
2018-Apr-19 13:28N 37°52' E 023°33'0 0.0
2018-Apr-19 12:55N 37°52' E 023°33'1 2.8
2018-Apr-19 12:30N 37°53' E 023°33'3 5.5
2018-Apr-19 12:00N 37°56' E 023°34'2 3.9
2018-Apr-19 11:30N 37°58' E 023°33'3 5.2
2018-Apr-19 11:00N 38°00' E 023°33'2 4.7
2018-Apr-19 10:29N 38°02' E 023°35'0 0.2
2018-Apr-19 09:58N 38°02' E 023°35'0 0.0
2018-Apr-19 09:31N 38°02' E 023°35'0 0.0
2018-Apr-19 08:58N 38°02' E 023°35'0 0.0
2018-Apr-19 08:26N 38°02' E 023°35'0 0.6
2018-Apr-19 08:00N 38°02' E 023°35'0 0.2
2018-Apr-19 07:29N 38°02' E 023°36'2 4.3
2018-Apr-19 07:00N 38°00' E 023°34'3 5.9
2018-Apr-19 06:30N 37°58' E 023°33'2 4.0
2018-Apr-19 06:00N 37°56' E 023°34'3 6.1
2018-Apr-19 05:30N 37°53' E 023°31'3 5.8
2018-Apr-19 05:00N 37°51' E 023°29'3 6.3
2018-Apr-19 04:30N 37°48' E 023°27'3 6.4
2018-Apr-19 04:00N 37°45' E 023°25'1 1.3
2018-Apr-19 03:20N 37°45' E 023°26'0 0.0
2018-Apr-19 02:56N 37°45' E 023°26'0 0.0
2018-Apr-19 02:26N 37°45' E 023°26'0 0.0
2018-Apr-19 01:56N 37°45' E 023°26'0 0.0
2018-Apr-19 01:29N 37°45' E 023°26'0 0.0
2018-Apr-19 00:59N 37°45' E 023°26'0 0.0
2018-Apr-19 00:27N 37°45' E 023°26'0 0.0
2018-Apr-18 23:57N 37°45' E 023°26'0 0.0
2018-Apr-18 23:25N 37°45' E 023°26'0 0.0
2018-Apr-18 22:56N 37°45' E 023°26'0 0.0
2018-Apr-18 22:26N 37°45' E 023°26'0 0.0
2018-Apr-18 21:56N 37°45' E 023°26'0 0.0
2018-Apr-18 21:29N 37°45' E 023°26'0 0.0
2018-Apr-18 20:59N 37°45' E 023°26'0 0.0
2018-Apr-18 20:26N 37°45' E 023°26'0 0.0
2018-Apr-18 19:56N 37°45' E 023°26'0 0.0
2018-Apr-18 19:29N 37°45' E 023°26'0 0.0
2018-Apr-18 18:59N 37°45' E 023°26'0 0.0
2018-Apr-18 18:29N 37°45' E 023°26'0 0.0
2018-Apr-18 17:59N 37°45' E 023°26'0 0.0
2018-Apr-18 17:26N 37°45' E 023°26'0 0.0
2018-Apr-18 16:59N 37°45' E 023°26'0 0.0
2018-Apr-18 16:28N 37°45' E 023°26'0 0.0
2018-Apr-18 15:58N 37°45' E 023°26'0 0.0
2018-Apr-18 15:28N 37°45' E 023°26'0 0.0
2018-Apr-18 14:58N 37°45' E 023°26'0 0.0
2018-Apr-18 14:28N 37°45' E 023°26'0 0.2
2018-Apr-18 13:59N 37°45' E 023°26'2 3.6
2018-Apr-18 13:31N 37°46' E 023°25'3 5.2
2018-Apr-18 13:01N 37°48' E 023°27'3 5.2
2018-Apr-18 12:31N 37°51' E 023°29'3 5.2
2018-Apr-18 12:00N 37°53' E 023°31'3 5.3
2018-Apr-18 11:31N 37°55' E 023°33'2 4.9
2018-Apr-18 11:01N 37°57' E 023°35'2 4.3
2018-Apr-18 10:31N 37°58' E 023°33'3 5.1
2018-Apr-18 10:01N 38°01' E 023°34'2 3.1
2018-Apr-18 09:28N 38°02' E 023°35'0 0.0
2018-Apr-18 08:54N 38°02' E 023°35'0 0.0
2018-Apr-18 08:27N 38°02' E 023°35'0 0.0
2018-Apr-18 07:57N 38°02' E 023°35'0 0.0
2018-Apr-18 07:29N 38°02' E 023°35'1 1.3
2018-Apr-18 07:00N 38°02' E 023°35'3 6.5
2018-Apr-18 06:30N 37°59' E 023°33'3 5.1
2018-Apr-18 06:00N 37°57' E 023°35'3 6.5
2018-Apr-18 05:30N 37°54' E 023°32'3 6.5
2018-Apr-18 05:00N 37°51' E 023°30'3 6.7
2018-Apr-18 04:30N 37°49' E 023°27'3 6.7
2018-Apr-18 04:00N 37°46' E 023°25'1 2.1
2018-Apr-18 03:26N 37°45' E 023°26'0 0.0
2018-Apr-18 02:39N 37°45' E 023°26'0 0.0
2018-Apr-18 02:24N 37°45' E 023°26'0 0.0
2018-Apr-18 02:00N 37°45' E 023°26'0 0.0
2018-Apr-18 01:02N 37°45' E 023°26'0 0.0
2018-Apr-18 00:53N 37°45' E 023°26'0 0.0
2018-Apr-18 00:27N 37°45' E 023°26'0 0.0
2018-Apr-17 23:54N 37°45' E 023°26'0 0.0
2018-Apr-17 20:45N 37°45' E 023°26'0 0.0
2018-Apr-17 20:27N 37°45' E 023°26'0 0.0
2018-Apr-17 19:05N 37°45' E 023°26'0 0.0
2018-Apr-17 18:59N 37°45' E 023°26'0 0.0
2018-Apr-17 18:15N 37°45' E 023°26'0 0.0
2018-Apr-17 17:51N 37°45' E 023°26'0 0.0
2018-Apr-17 17:27N 37°45' E 023°26'0 0.0
2018-Apr-17 16:59N 37°45' E 023°26'0 0.0
2018-Apr-17 16:30N 37°45' E 023°26'0 0.0
2018-Apr-17 15:55N 37°45' E 023°26'0 0.0
2018-Apr-17 15:15N 37°45' E 023°26'0 0.0
2018-Apr-17 15:00N 37°45' E 023°26'1 2.4
2018-Apr-17 14:30N 37°46' E 023°25'3 5.0
2018-Apr-17 14:01N 37°48' E 023°27'3 5.1
2018-Apr-17 13:30N 37°50' E 023°28'3 5.1
2018-Apr-17 13:00N 37°52' E 023°30'3 5.1
2018-Apr-17 12:30N 37°54' E 023°32'2 5.0
2018-Apr-17 12:00N 37°56' E 023°34'2 3.1
2018-Apr-17 11:30N 37°57' E 023°33'0 0.3
2018-Apr-17 10:54N 37°58' E 023°33'0 0.0
2018-Apr-17 10:25N 37°58' E 023°33'0 0.0
2018-Apr-17 09:58N 37°58' E 023°33'0 0.0
2018-Apr-17 09:30N 37°58' E 023°33'0 0.0
2018-Apr-17 08:58N 37°58' E 023°33'0 0.0
2018-Apr-17 08:30N 37°58' E 023°33'0 0.0
2018-Apr-17 07:58N 37°58' E 023°33'0 0.0
2018-Apr-17 07:30N 37°58' E 023°33'0 0.0
2018-Apr-17 07:00N 37°58' E 023°33'0 0.4
2018-Apr-17 06:30N 37°57' E 023°33'2 4.1
2018-Apr-17 06:00N 37°55' E 023°33'3 6.6
2018-Apr-17 05:30N 37°53' E 023°31'3 6.6
2018-Apr-17 05:00N 37°50' E 023°28'3 6.5
2018-Apr-17 04:30N 37°47' E 023°26'3 5.6
2018-Apr-17 04:00N 37°45' E 023°25'0 0.5
2018-Apr-17 03:30N 37°45' E 023°26'0 0.0
2018-Apr-17 02:59N 37°45' E 023°26'0 0.0
2018-Apr-17 02:26N 37°45' E 023°26'0 0.0
2018-Apr-17 01:58N 37°45' E 023°26'0 0.0
2018-Apr-17 01:26N 37°45' E 023°26'0 0.0
2018-Apr-17 00:58N 37°45' E 023°26'0 0.0
2018-Apr-17 00:22N 37°45' E 023°26'0 0.0
2018-Apr-16 21:05N 37°45' E 023°26'0 0.0
2018-Apr-16 20:00N 37°45' E 023°26'0 0.0
2018-Apr-16 19:13N 37°45' E 023°26'0 0.0
2018-Apr-16 18:57N 37°45' E 023°26'0 0.0
2018-Apr-16 18:21N 37°45' E 023°26'0 0.0
2018-Apr-16 17:45N 37°45' E 023°26'0 0.0
2018-Apr-16 17:21N 37°45' E 023°26'0 0.0
2018-Apr-16 16:57N 37°45' E 023°26'0 0.0
2018-Apr-16 16:25N 37°45' E 023°26'0 0.0
2018-Apr-16 15:54N 37°45' E 023°26'0 0.0
2018-Apr-16 15:19N 37°45' E 023°26'0 0.3
2018-Apr-16 15:00N 37°45' E 023°26'2 3.6
2018-Apr-16 14:30N 37°46' E 023°25'2 4.9
2018-Apr-16 14:00N 37°48' E 023°27'2 4.8
2018-Apr-16 13:30N 37°50' E 023°29'2 4.8
2018-Apr-16 13:00N 37°52' E 023°30'2 5.0
2018-Apr-16 12:30N 37°54' E 023°32'3 5.0
2018-Apr-16 12:00N 37°56' E 023°34'2 3.8
2018-Apr-16 11:30N 37°58' E 023°33'3 5.1
2018-Apr-16 11:00N 38°00' E 023°34'2 4.2
2018-Apr-16 10:30N 38°02' E 023°35'0 0.0
2018-Apr-16 10:00N 38°02' E 023°35'0 0.0
2018-Apr-16 09:26N 38°02' E 023°35'0 0.0
2018-Apr-16 09:00N 38°02' E 023°35'0 0.0
2018-Apr-16 08:24N 38°02' E 023°35'0 0.9
2018-Apr-16 08:01N 38°02' E 023°35'3 6.6
2018-Apr-16 07:30N 37°59' E 023°33'3 5.4
2018-Apr-16 07:01N 37°57' E 023°35'3 6.5
2018-Apr-16 06:30N 37°54' E 023°32'3 6.6
2018-Apr-16 06:00N 37°51' E 023°30'3 6.6
2018-Apr-16 05:30N 37°49' E 023°27'3 6.7
2018-Apr-16 05:00N 37°46' E 023°25'1 2.3
2018-Apr-16 04:26N 37°45' E 023°26'0 0.0
2018-Apr-16 03:55N 37°45' E 023°26'0 0.0
2018-Apr-16 03:30N 37°45' E 023°26'0 0.0
2018-Apr-16 02:55N 37°45' E 023°26'0 0.0
2018-Apr-16 02:29N 37°45' E 023°26'0 0.0
2018-Apr-16 01:59N 37°45' E 023°26'0 0.0
2018-Apr-16 01:25N 37°45' E 023°26'0 0.0
2018-Apr-16 00:55N 37°45' E 023°26'0 0.0
2018-Apr-16 00:27N 37°45' E 023°26'0 0.0
2018-Apr-15 23:56N 37°45' E 023°26'0 0.0
2018-Apr-15 23:28N 37°45' E 023°26'0 0.0
2018-Apr-15 22:55N 37°45' E 023°26'0 0.0
2018-Apr-15 22:25N 37°45' E 023°26'0 0.0
2018-Apr-15 21:55N 37°45' E 023°26'0 0.0
2018-Apr-15 21:25N 37°45' E 023°26'0 0.0
2018-Apr-15 20:50N 37°45' E 023°26'0 0.0
2018-Apr-15 20:21N 37°45' E 023°26'0 0.0
2018-Apr-15 19:50N 37°45' E 023°26'0 0.0
2018-Apr-15 19:25N 37°45' E 023°26'0 0.0
2018-Apr-15 18:55N 37°45' E 023°26'0 0.0
2018-Apr-15 18:13N 37°45' E 023°26'0 0.0
2018-Apr-15 17:55N 37°45' E 023°26'0 0.0
2018-Apr-15 17:25N 37°45' E 023°26'0 0.1
2018-Apr-15 16:54N 37°45' E 023°26'0 0.0
2018-Apr-15 16:24N 37°45' E 023°26'1 3.0
2018-Apr-15 16:01N 37°46' E 023°25'3 5.1
2018-Apr-15 15:31N 37°47' E 023°27'3 5.3
2018-Apr-15 15:01N 37°49' E 023°30'2 3.0
2018-Apr-15 14:29N 37°50' E 023°31'0 0.1
2018-Apr-15 13:52N 37°50' E 023°31'0 0.1
2018-Apr-15 13:28N 37°50' E 023°31'0 0.1
2018-Apr-15 12:50N 37°50' E 023°31'0 0.2
2018-Apr-15 12:30N 37°50' E 023°31'2 3.8
2018-Apr-15 12:00N 37°52' E 023°32'3 5.1
2018-Apr-15 11:30N 37°54' E 023°34'3 5.1
2018-Apr-15 11:00N 37°57' E 023°35'2 4.4
2018-Apr-15 10:30N 37°58' E 023°33'3 5.2
2018-Apr-15 10:00N 38°01' E 023°34'2 0.6
2018-Apr-15 07:10N 38°02' E 023°35'1 6.0
2018-Apr-15 07:00N 38°01' E 023°35'3 6.4
2018-Apr-15 06:31N 37°58' E 023°33'2 4.8
2018-Apr-15 06:00N 37°56' E 023°34'3 6.6
2018-Apr-15 05:30N 37°54' E 023°32'3 6.8
2018-Apr-15 05:00N 37°51' E 023°29'3 6.9
2018-Apr-15 04:31N 37°48' E 023°27'3 6.6
2018-Apr-15 04:00N 37°45' E 023°25'1 1.0
2018-Apr-15 03:21N 37°45' E 023°26'0 0.0
2018-Apr-15 02:57N 37°45' E 023°26'0 0.0
2018-Apr-15 02:21N 37°45' E 023°26'0 0.0
2018-Apr-15 01:57N 37°45' E 023°26'0 0.0
2018-Apr-15 01:22N 37°45' E 023°26'0 0.0
2018-Apr-15 00:52N 37°45' E 023°26'0 0.0
2018-Apr-15 00:28N 37°45' E 023°26'0 0.0
2018-Apr-14 23:51N 37°45' E 023°26'0 0.0
2018-Apr-14 23:27N 37°45' E 023°26'0 0.0
2018-Apr-14 22:57N 37°45' E 023°26'0 0.0
2018-Apr-14 22:24N 37°45' E 023°26'0 0.0
2018-Apr-14 21:59N 37°45' E 023°26'0 0.0
2018-Apr-14 21:28N 37°45' E 023°26'0 0.0
2018-Apr-14 20:58N 37°45' E 023°26'0 0.0
2018-Apr-14 20:22N 37°45' E 023°26'0 0.0
2018-Apr-14 19:50N 37°45' E 023°26'0 0.0
2018-Apr-14 19:26N 37°45' E 023°26'0 0.0
2018-Apr-14 18:48N 37°45' E 023°26'0 0.0
2018-Apr-14 18:30N 37°45' E 023°26'0 0.0
2018-Apr-14 18:00N 37°45' E 023°26'0 0.0
2018-Apr-14 17:30N 37°45' E 023°26'0 0.0
2018-Apr-14 17:00N 37°45' E 023°26'0 0.0
2018-Apr-14 16:30N 37°45' E 023°26'0 0.0
2018-Apr-14 16:00N 37°45' E 023°26'0 0.0
2018-Apr-14 15:30N 37°45' E 023°26'0 0.0
2018-Apr-14 14:55N 37°45' E 023°26'0 0.0
2018-Apr-14 14:25N 37°45' E 023°26'0 0.9
2018-Apr-14 14:00N 37°44' E 023°25'2 4.3
2018-Apr-14 13:30N 37°47' E 023°26'3 5.1
2018-Apr-14 13:00N 37°49' E 023°27'3 5.1
2018-Apr-14 12:30N 37°51' E 023°29'3 5.1
2018-Apr-14 12:00N 37°53' E 023°31'3 5.0
2018-Apr-14 11:30N 37°55' E 023°33'2 4.9
2018-Apr-14 11:00N 37°57' E 023°35'2 4.4
2018-Apr-14 10:30N 37°59' E 023°33'3 5.0
2018-Apr-14 10:00N 38°01' E 023°34'1 0.6
2018-Apr-14 07:27N 38°02' E 023°35'1 1.3
2018-Apr-14 07:00N 38°02' E 023°35'3 6.6
2018-Apr-14 06:31N 37°59' E 023°33'2 5.0
2018-Apr-14 06:00N 37°56' E 023°34'3 6.7
2018-Apr-14 05:30N 37°54' E 023°32'3 6.7
2018-Apr-14 05:00N 37°51' E 023°29'3 6.8
2018-Apr-14 04:30N 37°48' E 023°27'3 6.6
2018-Apr-14 04:00N 37°45' E 023°25'1 0.4
2018-Apr-14 01:32N 37°45' E 023°26'0 0.0
2018-Apr-14 00:15N 37°45' E 023°26'0 0.0
2018-Apr-13 23:43N 37°45' E 023°26'0 0.0
2018-Apr-13 23:13N 37°45' E 023°26'0 0.0
2018-Apr-13 22:49N 37°45' E 023°26'0 0.0
2018-Apr-13 22:26N 37°45' E 023°26'0 0.0
2018-Apr-13 21:44N 37°45' E 023°26'0 0.0
2018-Apr-13 21:19N 37°45' E 023°26'0 0.0
2018-Apr-13 19:49N 37°45' E 023°26'0 0.0
2018-Apr-13 19:25N 37°45' E 023°26'0 0.0
2018-Apr-13 18:49N 37°45' E 023°26'0 0.0
2018-Apr-13 18:24N 37°45' E 023°26'0 0.0
2018-Apr-13 18:00N 37°45' E 023°26'0 0.0
2018-Apr-13 17:30N 37°45' E 023°26'0 0.0
2018-Apr-13 16:58N 37°45' E 023°26'1 3.0
2018-Apr-13 16:30N 37°46' E 023°25'2 5.0
2018-Apr-13 16:00N 37°48' E 023°27'3 5.1
2018-Apr-13 15:30N 37°50' E 023°29'2 4.6
2018-Apr-13 14:59N 37°52' E 023°31'0 0.0
2018-Apr-13 14:30N 37°52' E 023°31'0 0.1
2018-Apr-13 14:00N 37°52' E 023°31'0 0.0
2018-Apr-13 13:30N 37°52' E 023°31'0 0.1
2018-Apr-13 12:58N 37°52' E 023°31'0 0.2
2018-Apr-13 12:28N 37°52' E 023°31'0 0.2
2018-Apr-13 11:58N 37°52' E 023°31'0 0.0
2018-Apr-13 11:28N 37°52' E 023°31'1 2.0
2018-Apr-13 11:00N 37°53' E 023°31'3 5.0
2018-Apr-13 10:30N 37°55' E 023°33'3 4.9
2018-Apr-13 09:59N 37°57' E 023°35'2 4.4
2018-Apr-13 09:30N 37°58' E 023°33'3 5.1
2018-Apr-13 09:01N 38°01' E 023°34'2 3.4
2018-Apr-13 08:29N 38°02' E 023°35'0 0.0
2018-Apr-13 07:59N 38°02' E 023°35'0 0.0
2018-Apr-13 07:29N 38°02' E 023°35'0 0.0
2018-Apr-13 06:58N 38°02' E 023°35'0 0.0
2018-Apr-13 06:30N 38°02' E 023°35'1 2.3
2018-Apr-13 06:00N 38°01' E 023°34'3 6.5
2018-Apr-13 05:30N 37°58' E 023°33'2 4.5
2018-Apr-13 05:00N 37°56' E 023°34'3 6.5
2018-Apr-13 04:30N 37°54' E 023°31'3 6.7
2018-Apr-13 04:00N 37°51' E 023°29'3 6.8
2018-Apr-13 03:30N 37°48' E 023°27'3 6.4
2018-Apr-13 03:00N 37°45' E 023°25'1 1.1
2018-Apr-13 02:28N 37°45' E 023°26'0 0.0
2018-Apr-13 01:59N 37°45' E 023°26'0 0.0
2018-Apr-13 01:30N 37°45' E 023°26'  
Track history (hours):
 
Tides and Currents Weather Stations Pressure Air Temp Water Temp Dewpoint Dewpoint Depression Visibility Wind Speed Wind Dir Waves Ship Positions

Aegina II

Last reported at 2018-Apr-23 00:58 UTC. Time now 2018-Apr-23 02:12 UTC.
Position N 37°45' E 023°26'.

Length 53 m; draft 5.5 m.

Type: Tanker. MMSI: 237096700.

Date/timePositionNaut miles runAvg speedWind from/ knotsBaromVisibWave heightAir tempDewpointWater temp
2018-Apr-23 00:58N 37°45' E 023°26'0 0.0
2018-Apr-22 23:57N 37°45' E 023°26'0 0.0
2018-Apr-22 22:17N 37°45' E 023°26'0 0.0
2018-Apr-22 21:59N 37°45' E 023°26'0 0.0
2018-Apr-22 21:29N 37°45' E 023°26'0 0.0
2018-Apr-22 20:56N 37°45' E 023°26'0 0.0
2018-Apr-22 20:24N 37°45' E 023°26'0 0.0
2018-Apr-22 19:58N 37°45' E 023°26'0 0.0
2018-Apr-22 19:28N 37°45' E 023°26'0 0.0
2018-Apr-22 18:58N 37°45' E 023°26'0 0.0
2018-Apr-22 18:28N 37°45' E 023°26'0 0.0
2018-Apr-22 17:58N 37°45' E 023°26'0 0.0
2018-Apr-22 17:28N 37°45' E 023°26'0 0.0
2018-Apr-22 16:49N 37°45' E 023°26'0 0.0
2018-Apr-22 16:25N 37°45' E 023°26'0 0.0
2018-Apr-22 15:59N 37°45' E 023°26'0 0.0
2018-Apr-22 15:30N 37°45' E 023°26'0 0.0
2018-Apr-22 15:00N 37°45' E 023°26'0 0.0
2018-Apr-22 14:27N 37°45' E 023°26'0 0.2
2018-Apr-22 14:00N 37°45' E 023°26'2 3.6
2018-Apr-22 13:30N 37°46' E 023°25'3 5.0
2018-Apr-22 13:00N 37°48' E 023°27'3 5.2
2018-Apr-22 12:30N 37°51' E 023°29'3 5.3
2018-Apr-22 12:00N 37°53' E 023°31'3 5.0
2018-Apr-22 11:30N 37°55' E 023°33'2 4.9
2018-Apr-22 11:00N 37°57' E 023°35'2 4.4
2018-Apr-22 10:30N 37°58' E 023°33'3 5.1
2018-Apr-22 10:00N 38°01' E 023°34'2 3.2
2018-Apr-22 09:29N 38°02' E 023°35'0 0.0
2018-Apr-22 08:57N 38°02' E 023°35'0 0.0
2018-Apr-22 08:27N 38°02' E 023°35'0 0.0
2018-Apr-22 07:59N 38°02' E 023°35'0 0.0
2018-Apr-22 07:28N 38°02' E 023°35'2 3.4
2018-Apr-22 07:00N 38°01' E 023°34'3 6.5
2018-Apr-22 06:30N 37°58' E 023°33'2 4.2
2018-Apr-22 06:01N 37°56' E 023°34'3 6.6
2018-Apr-22 05:31N 37°53' E 023°31'3 6.4
2018-Apr-22 05:00N 37°50' E 023°29'3 6.4
2018-Apr-22 04:30N 37°48' E 023°27'3 6.2
2018-Apr-22 04:00N 37°45' E 023°25'1 1.0
2018-Apr-22 03:28N 37°45' E 023°26'0 0.0
2018-Apr-22 02:55N 37°45' E 023°26'0 0.0
2018-Apr-22 02:28N 37°45' E 023°26'0 0.0
2018-Apr-22 01:55N 37°45' E 023°26'0 0.0
2018-Apr-22 01:28N 37°45' E 023°26'0 0.0
2018-Apr-22 00:40N 37°45' E 023°26'0 0.0
2018-Apr-22 00:20N 37°45' E 023°26'0 0.0
2018-Apr-21 23:56N 37°45' E 023°26'0 0.0
2018-Apr-21 23:26N 37°45' E 023°26'0 0.0
2018-Apr-21 22:59N 37°45' E 023°26'0 0.0
2018-Apr-21 22:17N 37°45' E 023°26'0 0.0
2018-Apr-21 21:32N 37°45' E 023°26'0 0.0
2018-Apr-21 21:21N 37°45' E 023°26'0 0.0
2018-Apr-21 20:57N 37°45' E 023°26'0 0.0
2018-Apr-21 20:29N 37°45' E 023°26'0 0.0
2018-Apr-21 19:58N 37°45' E 023°26'0 0.0
2018-Apr-21 19:27N 37°45' E 023°26'0 0.0
2018-Apr-21 18:51N 37°45' E 023°26'0 0.0
2018-Apr-21 18:27N 37°45' E 023°26'0 0.0
2018-Apr-21 17:57N 37°45' E 023°26'0 0.0
2018-Apr-21 17:27N 37°45' E 023°26'0 0.0
2018-Apr-21 16:58N 37°45' E 023°26'0 0.0
2018-Apr-21 16:28N 37°45' E 023°26'0 0.0
2018-Apr-21 15:36N 37°45' E 023°26'0 0.0
2018-Apr-21 15:24N 37°45' E 023°26'0 0.0
2018-Apr-21 14:30N 37°45' E 023°26'0 0.1
2018-Apr-21 13:57N 37°45' E 023°26'2 3.6
2018-Apr-21 13:30N 37°46' E 023°25'3 5.4
2018-Apr-21 13:00N 37°48' E 023°27'3 5.3
2018-Apr-21 12:30N 37°51' E 023°29'3 5.6
2018-Apr-21 12:00N 37°53' E 023°31'3 5.4
2018-Apr-21 11:30N 37°55' E 023°33'2 4.5
2018-Apr-21 11:00N 37°57' E 023°35'2 4.4
2018-Apr-21 10:30N 37°59' E 023°33'3 5.3
2018-Apr-21 10:00N 38°01' E 023°34'1 1.9
2018-Apr-21 09:25N 38°02' E 023°35'0 0.0
2018-Apr-21 08:59N 38°02' E 023°35'0 0.0
2018-Apr-21 08:25N 38°02' E 023°35'0 0.0
2018-Apr-21 07:59N 38°02' E 023°35'0 0.0
2018-Apr-21 07:26N 38°02' E 023°35'2 4.2
2018-Apr-21 07:00N 38°01' E 023°34'3 6.2
2018-Apr-21 06:31N 37°58' E 023°33'2 4.2
2018-Apr-21 06:00N 37°56' E 023°34'3 6.3
2018-Apr-21 05:30N 37°53' E 023°31'3 6.2
2018-Apr-21 05:00N 37°51' E 023°29'3 6.3
2018-Apr-21 04:30N 37°48' E 023°27'3 5.6
2018-Apr-21 04:00N 37°46' E 023°25'1 2.4
2018-Apr-21 03:29N 37°45' E 023°26'0 0.0
2018-Apr-21 02:58N 37°45' E 023°26'0 0.0
2018-Apr-21 02:28N 37°45' E 023°26'0 0.0
2018-Apr-21 01:56N 37°45' E 023°26'0 0.0
2018-Apr-21 01:30N 37°45' E 023°26'0 0.0
2018-Apr-21 00:54N 37°45' E 023°26'0 0.0
2018-Apr-21 00:25N 37°45' E 023°26'0 0.0
2018-Apr-20 23:55N 37°45' E 023°26'0 0.0
2018-Apr-20 23:25N 37°45' E 023°26'0 0.0
2018-Apr-20 22:56N 37°45' E 023°26'0 0.0
2018-Apr-20 22:26N 37°45' E 023°26'0 0.0
2018-Apr-20 22:00N 37°45' E 023°26'0 0.0
2018-Apr-20 21:25N 37°45' E 023°26'0 0.0
2018-Apr-20 20:55N 37°45' E 023°26'0 0.0
2018-Apr-20 20:25N 37°45' E 023°26'0 0.0
2018-Apr-20 19:57N 37°45' E 023°26'0 0.0
2018-Apr-20 18:32N 37°45' E 023°26'0 0.0
2018-Apr-20 18:14N 37°45' E 023°26'0 0.0
2018-Apr-20 17:59N 37°45' E 023°26'0 0.0
2018-Apr-20 17:23N 37°45' E 023°26'0 0.0
2018-Apr-20 17:00N 37°45' E 023°26'1 1.2
2018-Apr-20 16:31N 37°45' E 023°25'2 4.6
2018-Apr-20 16:00N 37°47' E 023°26'3 5.1
2018-Apr-20 15:30N 37°49' E 023°28'3 5.3
2018-Apr-20 15:01N 37°51' E 023°29'3 5.4
2018-Apr-20 14:30N 37°53' E 023°31'3 5.3
2018-Apr-20 14:00N 37°56' E 023°34'2 3.3
2018-Apr-20 13:31N 37°57' E 023°34'2 4.8
2018-Apr-20 13:01N 37°59' E 023°33'3 5.2
2018-Apr-20 12:30N 38°02' E 023°35'0 0.9
2018-Apr-20 11:58N 38°02' E 023°35'0 0.0
2018-Apr-20 11:29N 38°02' E 023°35'0 0.0
2018-Apr-20 11:00N 38°02' E 023°35'0 0.0
2018-Apr-20 10:30N 38°02' E 023°35'0 0.0
2018-Apr-20 09:58N 38°02' E 023°35'2 4.5
2018-Apr-20 09:30N 38°00' E 023°34'3 5.9
2018-Apr-20 09:00N 37°57' E 023°33'2 4.9
2018-Apr-20 08:30N 37°55' E 023°34'3 5.1
2018-Apr-20 07:59N 37°53' E 023°33'0 0.0
2018-Apr-20 07:29N 37°53' E 023°33'0 0.1
2018-Apr-20 06:58N 37°53' E 023°33'0 0.0
2018-Apr-20 06:26N 37°53' E 023°33'0 0.1
2018-Apr-20 06:00N 37°53' E 023°33'1 3.0
2018-Apr-20 05:30N 37°52' E 023°32'3 5.8
2018-Apr-20 05:01N 37°49' E 023°30'3 5.9
2018-Apr-20 04:30N 37°47' E 023°27'3 5.4
2018-Apr-20 04:01N 37°45' E 023°25'1 1.4
2018-Apr-20 03:25N 37°45' E 023°26'0 0.0
2018-Apr-20 02:55N 37°45' E 023°26'0 0.0
2018-Apr-20 02:23N 37°45' E 023°26'0 0.0
2018-Apr-20 01:58N 37°45' E 023°26'0 0.0
2018-Apr-20 01:25N 37°45' E 023°26'0 0.0
2018-Apr-20 00:59N 37°45' E 023°26'0 0.0
2018-Apr-20 00:29N 37°45' E 023°26'0 0.0
2018-Apr-19 23:53N 37°45' E 023°26'0 0.0
2018-Apr-19 23:29N 37°45' E 023°26'0 0.0
2018-Apr-19 22:59N 37°45' E 023°26'0 0.0
2018-Apr-19 22:29N 37°45' E 023°26'0 0.0
2018-Apr-19 21:59N 37°45' E 023°26'0 0.0
2018-Apr-19 21:29N 37°45' E 023°26'0 0.0
2018-Apr-19 20:57N 37°45' E 023°26'0 0.0
2018-Apr-19 20:30N 37°45' E 023°26'0 0.0
2018-Apr-19 19:55N 37°45' E 023°26'0 0.0
2018-Apr-19 19:28N 37°45' E 023°26'0 0.0
2018-Apr-19 18:52N 37°45' E 023°26'0 0.0
2018-Apr-19 18:28N 37°45' E 023°26'0 0.0
2018-Apr-19 17:52N 37°45' E 023°26'0 0.0
2018-Apr-19 16:55N 37°45' E 023°26'1 3.5
2018-Apr-19 16:30N 37°46' E 023°25'3 5.3
2018-Apr-19 16:00N 37°48' E 023°27'3 5.1
2018-Apr-19 15:30N 37°50' E 023°30'3 5.2
2018-Apr-19 15:00N 37°51' E 023°32'1 1.7
2018-Apr-19 14:27N 37°52' E 023°33'0 0.0
2018-Apr-19 13:58N 37°52' E 023°33'0 0.0
2018-Apr-19 13:28N 37°52' E 023°33'0 0.0
2018-Apr-19 12:55N 37°52' E 023°33'1 2.8
2018-Apr-19 12:30N 37°53' E 023°33'3 5.5
2018-Apr-19 12:00N 37°56' E 023°34'2 3.9
2018-Apr-19 11:30N 37°58' E 023°33'3 5.2
2018-Apr-19 11:00N 38°00' E 023°33'2 4.7
2018-Apr-19 10:29N 38°02' E 023°35'0 0.2
2018-Apr-19 09:58N 38°02' E 023°35'0 0.0
2018-Apr-19 09:31N 38°02' E 023°35'0 0.0
2018-Apr-19 08:58N 38°02' E 023°35'0 0.0
2018-Apr-19 08:26N 38°02' E 023°35'0 0.6
2018-Apr-19 08:00N 38°02' E 023°35'0 0.2
2018-Apr-19 07:29N 38°02' E 023°36'2 4.3
2018-Apr-19 07:00N 38°00' E 023°34'3 5.9
2018-Apr-19 06:30N 37°58' E 023°33'2 4.0
2018-Apr-19 06:00N 37°56' E 023°34'3 6.1
2018-Apr-19 05:30N 37°53' E 023°31'3 5.8
2018-Apr-19 05:00N 37°51' E 023°29'3 6.3
2018-Apr-19 04:30N 37°48' E 023°27'3 6.4
2018-Apr-19 04:00N 37°45' E 023°25'1 1.3
2018-Apr-19 03:20N 37°45' E 023°26'0 0.0
2018-Apr-19 02:56N 37°45' E 023°26'0 0.0
2018-Apr-19 02:26N 37°45' E 023°26'0 0.0
2018-Apr-19 01:56N 37°45' E 023°26'0 0.0
2018-Apr-19 01:29N 37°45' E 023°26'0 0.0
2018-Apr-19 00:59N 37°45' E 023°26'0 0.0
2018-Apr-19 00:27N 37°45' E 023°26'0 0.0
2018-Apr-18 23:57N 37°45' E 023°26'0 0.0
2018-Apr-18 23:25N 37°45' E 023°26'0 0.0
2018-Apr-18 22:56N 37°45' E 023°26'0 0.0
2018-Apr-18 22:26N 37°45' E 023°26'0 0.0
2018-Apr-18 21:56N 37°45' E 023°26'0 0.0
2018-Apr-18 21:29N 37°45' E 023°26'0 0.0
2018-Apr-18 20:59N 37°45' E 023°26'0 0.0
2018-Apr-18 20:26N 37°45' E 023°26'0 0.0
2018-Apr-18 19:56N 37°45' E 023°26'0 0.0
2018-Apr-18 19:29N 37°45' E 023°26'0 0.0
2018-Apr-18 18:59N 37°45' E 023°26'0 0.0
2018-Apr-18 18:29N 37°45' E 023°26'0 0.0
2018-Apr-18 17:59N 37°45' E 023°26'0 0.0
2018-Apr-18 17:26N 37°45' E 023°26'0 0.0
2018-Apr-18 16:59N 37°45' E 023°26'0 0.0
2018-Apr-18 16:28N 37°45' E 023°26'0 0.0
2018-Apr-18 15:58N 37°45' E 023°26'0 0.0
2018-Apr-18 15:28N 37°45' E 023°26'0 0.0
2018-Apr-18 14:58N 37°45' E 023°26'0 0.0
2018-Apr-18 14:28N 37°45' E 023°26'0 0.2
2018-Apr-18 13:59N 37°45' E 023°26'2 3.6
2018-Apr-18 13:31N 37°46' E 023°25'3 5.2
2018-Apr-18 13:01N 37°48' E 023°27'3 5.2
2018-Apr-18 12:31N 37°51' E 023°29'3 5.2
2018-Apr-18 12:00N 37°53' E 023°31'3 5.3
2018-Apr-18 11:31N 37°55' E 023°33'2 4.9
2018-Apr-18 11:01N 37°57' E 023°35'2 4.3
2018-Apr-18 10:31N 37°58' E 023°33'3 5.1
2018-Apr-18 10:01N 38°01' E 023°34'2 3.1
2018-Apr-18 09:28N 38°02' E 023°35'0 0.0
2018-Apr-18 08:54N 38°02' E 023°35'0 0.0
2018-Apr-18 08:27N 38°02' E 023°35'0 0.0
2018-Apr-18 07:57N 38°02' E 023°35'0 0.0
2018-Apr-18 07:29N 38°02' E 023°35'1 1.3
2018-Apr-18 07:00N 38°02' E 023°35'3 6.5
2018-Apr-18 06:30N 37°59' E 023°33'3 5.1
2018-Apr-18 06:00N 37°57' E 023°35'3 6.5
2018-Apr-18 05:30N 37°54' E 023°32'3 6.5
2018-Apr-18 05:00N 37°51' E 023°30'3 6.7
2018-Apr-18 04:30N 37°49' E 023°27'3 6.7
2018-Apr-18 04:00N 37°46' E 023°25'1 2.1
2018-Apr-18 03:26N 37°45' E 023°26'0 0.0
2018-Apr-18 02:39N 37°45' E 023°26'0 0.0
2018-Apr-18 02:24N 37°45' E 023°26'0 0.0
2018-Apr-18 02:00N 37°45' E 023°26'0 0.0
2018-Apr-18 01:02N 37°45' E 023°26'0 0.0
2018-Apr-18 00:53N 37°45' E 023°26'0 0.0
2018-Apr-18 00:27N 37°45' E 023°26'0 0.0
2018-Apr-17 23:54N 37°45' E 023°26'0 0.0
2018-Apr-17 20:45N 37°45' E 023°26'0 0.0
2018-Apr-17 20:27N 37°45' E 023°26'0 0.0
2018-Apr-17 19:05N 37°45' E 023°26'0 0.0
2018-Apr-17 18:59N 37°45' E 023°26'0 0.0
2018-Apr-17 18:15N 37°45' E 023°26'0 0.0
2018-Apr-17 17:51N 37°45' E 023°26'0 0.0
2018-Apr-17 17:27N 37°45' E 023°26'0 0.0
2018-Apr-17 16:59N 37°45' E 023°26'0 0.0
2018-Apr-17 16:30N 37°45' E 023°26'0 0.0
2018-Apr-17 15:55N 37°45' E 023°26'0 0.0
2018-Apr-17 15:15N 37°45' E 023°26'0 0.0
2018-Apr-17 15:00N 37°45' E 023°26'1 2.4
2018-Apr-17 14:30N 37°46' E 023°25'3 5.0
2018-Apr-17 14:01N 37°48' E 023°27'3 5.1
2018-Apr-17 13:30N 37°50' E 023°28'3 5.1
2018-Apr-17 13:00N 37°52' E 023°30'3 5.1
2018-Apr-17 12:30N 37°54' E 023°32'2 5.0
2018-Apr-17 12:00N 37°56' E 023°34'2 3.1
2018-Apr-17 11:30N 37°57' E 023°33'0 0.3
2018-Apr-17 10:54N 37°58' E 023°33'0 0.0
2018-Apr-17 10:25N 37°58' E 023°33'0 0.0
2018-Apr-17 09:58N 37°58' E 023°33'0 0.0
2018-Apr-17 09:30N 37°58' E 023°33'0 0.0
2018-Apr-17 08:58N 37°58' E 023°33'0 0.0
2018-Apr-17 08:30N 37°58' E 023°33'0 0.0
2018-Apr-17 07:58N 37°58' E 023°33'0 0.0
2018-Apr-17 07:30N 37°58' E 023°33'0 0.0
2018-Apr-17 07:00N 37°58' E 023°33'0 0.4
2018-Apr-17 06:30N 37°57' E 023°33'2 4.1
2018-Apr-17 06:00N 37°55' E 023°33'3 6.6
2018-Apr-17 05:30N 37°53' E 023°31'3 6.6
2018-Apr-17 05:00N 37°50' E 023°28'3 6.5
2018-Apr-17 04:30N 37°47' E 023°26'3 5.6
2018-Apr-17 04:00N 37°45' E 023°25'0 0.5
2018-Apr-17 03:30N 37°45' E 023°26'0 0.0
2018-Apr-17 02:59N 37°45' E 023°26'0 0.0
2018-Apr-17 02:26N 37°45' E 023°26'0 0.0
2018-Apr-17 01:58N 37°45' E 023°26'0 0.0
2018-Apr-17 01:26N 37°45' E 023°26'0 0.0
2018-Apr-17 00:58N 37°45' E 023°26'0 0.0
2018-Apr-17 00:22N 37°45' E 023°26'0 0.0
2018-Apr-16 21:05N 37°45' E 023°26'0 0.0
2018-Apr-16 20:00N 37°45' E 023°26'0 0.0
2018-Apr-16 19:13N 37°45' E 023°26'0 0.0
2018-Apr-16 18:57N 37°45' E 023°26'0 0.0
2018-Apr-16 18:21N 37°45' E 023°26'0 0.0
2018-Apr-16 17:45N 37°45' E 023°26'0 0.0
2018-Apr-16 17:21N 37°45' E 023°26'0 0.0
2018-Apr-16 16:57N 37°45' E 023°26'0 0.0
2018-Apr-16 16:25N 37°45' E 023°26'0 0.0
2018-Apr-16 15:54N 37°45' E 023°26'0 0.0
2018-Apr-16 15:19N 37°45' E 023°26'0 0.3
2018-Apr-16 15:00N 37°45' E 023°26'2 3.6
2018-Apr-16 14:30N 37°46' E 023°25'2 4.9
2018-Apr-16 14:00N 37°48' E 023°27'2 4.8
2018-Apr-16 13:30N 37°50' E 023°29'2 4.8
2018-Apr-16 13:00N 37°52' E 023°30'2 5.0
2018-Apr-16 12:30N 37°54' E 023°32'3 5.0
2018-Apr-16 12:00N 37°56' E 023°34'2 3.8
2018-Apr-16 11:30N 37°58' E 023°33'3 5.1
2018-Apr-16 11:00N 38°00' E 023°34'2 4.2
2018-Apr-16 10:30N 38°02' E 023°35'0 0.0
2018-Apr-16 10:00N 38°02' E 023°35'0 0.0
2018-Apr-16 09:26N 38°02' E 023°35'0 0.0
2018-Apr-16 09:00N 38°02' E 023°35'0 0.0
2018-Apr-16 08:24N 38°02' E 023°35'0 0.9
2018-Apr-16 08:01N 38°02' E 023°35'3 6.6
2018-Apr-16 07:30N 37°59' E 023°33'3 5.4
2018-Apr-16 07:01N 37°57' E 023°35'3 6.5
2018-Apr-16 06:30N 37°54' E 023°32'3 6.6
2018-Apr-16 06:00N 37°51' E 023°30'3 6.6
2018-Apr-16 05:30N 37°49' E 023°27'3 6.7
2018-Apr-16 05:00N 37°46' E 023°25'1 2.3
2018-Apr-16 04:26N 37°45' E 023°26'0 0.0
2018-Apr-16 03:55N 37°45' E 023°26'0 0.0
2018-Apr-16 03:30N 37°45' E 023°26'0 0.0
2018-Apr-16 02:55N 37°45' E 023°26'0 0.0
2018-Apr-16 02:29N 37°45' E 023°26'0 0.0
2018-Apr-16 01:59N 37°45' E 023°26'0 0.0
2018-Apr-16 01:25N 37°45' E 023°26'0 0.0
2018-Apr-16 00:55N 37°45' E 023°26'0 0.0
2018-Apr-16 00:27N 37°45' E 023°26'0 0.0
2018-Apr-15 23:56N 37°45' E 023°26'0 0.0
2018-Apr-15 23:28N 37°45' E 023°26'0 0.0
2018-Apr-15 22:55N 37°45' E 023°26'0 0.0
2018-Apr-15 22:25N 37°45' E 023°26'0 0.0
2018-Apr-15 21:55N 37°45' E 023°26'0 0.0
2018-Apr-15 21:25N 37°45' E 023°26'0 0.0
2018-Apr-15 20:50N 37°45' E 023°26'0 0.0
2018-Apr-15 20:21N 37°45' E 023°26'0 0.0
2018-Apr-15 19:50N 37°45' E 023°26'0 0.0
2018-Apr-15 19:25N 37°45' E 023°26'0 0.0
2018-Apr-15 18:55N 37°45' E 023°26'0 0.0
2018-Apr-15 18:13N 37°45' E 023°26'0 0.0
2018-Apr-15 17:55N 37°45' E 023°26'0 0.0
2018-Apr-15 17:25N 37°45' E 023°26'0 0.1
2018-Apr-15 16:54N 37°45' E 023°26'0 0.0
2018-Apr-15 16:24N 37°45' E 023°26'1 3.0
2018-Apr-15 16:01N 37°46' E 023°25'3 5.1
2018-Apr-15 15:31N 37°47' E 023°27'3 5.3
2018-Apr-15 15:01N 37°49' E 023°30'2 3.0
2018-Apr-15 14:29N 37°50' E 023°31'0 0.1
2018-Apr-15 13:52N 37°50' E 023°31'0 0.1
2018-Apr-15 13:28N 37°50' E 023°31'0 0.1
2018-Apr-15 12:50N 37°50' E 023°31'0 0.2
2018-Apr-15 12:30N 37°50' E 023°31'2 3.8
2018-Apr-15 12:00N 37°52' E 023°32'3 5.1
2018-Apr-15 11:30N 37°54' E 023°34'3 5.1
2018-Apr-15 11:00N 37°57' E 023°35'2 4.4
2018-Apr-15 10:30N 37°58' E 023°33'3 5.2
2018-Apr-15 10:00N 38°01' E 023°34'2 0.6
2018-Apr-15 07:10N 38°02' E 023°35'1 6.0
2018-Apr-15 07:00N 38°01' E 023°35'3 6.4
2018-Apr-15 06:31N 37°58' E 023°33'2 4.8
2018-Apr-15 06:00N 37°56' E 023°34'3 6.6
2018-Apr-15 05:30N 37°54' E 023°32'3 6.8
2018-Apr-15 05:00N 37°51' E 023°29'3 6.9
2018-Apr-15 04:31N 37°48' E 023°27'3 6.6
2018-Apr-15 04:00N 37°45' E 023°25'1 1.0
2018-Apr-15 03:21N 37°45' E 023°26'0 0.0
2018-Apr-15 02:57N 37°45' E 023°26'0 0.0
2018-Apr-15 02:21N 37°45' E 023°26'0 0.0
2018-Apr-15 01:57N 37°45' E 023°26'0 0.0
2018-Apr-15 01:22N 37°45' E 023°26'0 0.0
2018-Apr-15 00:52N 37°45' E 023°26'0 0.0
2018-Apr-15 00:28N 37°45' E 023°26'0 0.0
2018-Apr-14 23:51N 37°45' E 023°26'0 0.0
2018-Apr-14 23:27N 37°45' E 023°26'0 0.0
2018-Apr-14 22:57N 37°45' E 023°26'0 0.0
2018-Apr-14 22:24N 37°45' E 023°26'0 0.0
2018-Apr-14 21:59N 37°45' E 023°26'0 0.0
2018-Apr-14 21:28N 37°45' E 023°26'0 0.0
2018-Apr-14 20:58N 37°45' E 023°26'0 0.0
2018-Apr-14 20:22N 37°45' E 023°26'0 0.0
2018-Apr-14 19:50N 37°45' E 023°26'0 0.0
2018-Apr-14 19:26N 37°45' E 023°26'0 0.0
2018-Apr-14 18:48N 37°45' E 023°26'0 0.0
2018-Apr-14 18:30N 37°45' E 023°26'0 0.0
2018-Apr-14 18:00N 37°45' E 023°26'0 0.0
2018-Apr-14 17:30N 37°45' E 023°26'0 0.0
2018-Apr-14 17:00N 37°45' E 023°26'0 0.0
2018-Apr-14 16:30N 37°45' E 023°26'0 0.0
2018-Apr-14 16:00N 37°45' E 023°26'0 0.0
2018-Apr-14 15:30N 37°45' E 023°26'0 0.0
2018-Apr-14 14:55N 37°45' E 023°26'0 0.0
2018-Apr-14 14:25N 37°45' E 023°26'0 0.9
2018-Apr-14 14:00N 37°44' E 023°25'2 4.3
2018-Apr-14 13:30N 37°47' E 023°26'3 5.1
2018-Apr-14 13:00N 37°49' E 023°27'3 5.1
2018-Apr-14 12:30N 37°51' E 023°29'3 5.1
2018-Apr-14 12:00N 37°53' E 023°31'3 5.0
2018-Apr-14 11:30N 37°55' E 023°33'2 4.9
2018-Apr-14 11:00N 37°57' E 023°35'2 4.4
2018-Apr-14 10:30N 37°59' E 023°33'3 5.0
2018-Apr-14 10:00N 38°01' E 023°34'1 0.6
2018-Apr-14 07:27N 38°02' E 023°35'1 1.3
2018-Apr-14 07:00N 38°02' E 023°35'3 6.6
2018-Apr-14 06:31N 37°59' E 023°33'2 5.0
2018-Apr-14 06:00N 37°56' E 023°34'3 6.7
2018-Apr-14 05:30N 37°54' E 023°32'3 6.7
2018-Apr-14 05:00N 37°51' E 023°29'3 6.8
2018-Apr-14 04:30N 37°48' E 023°27'3 6.6
2018-Apr-14 04:00N 37°45' E 023°25'1 0.4
2018-Apr-14 01:32N 37°45' E 023°26'0 0.0
2018-Apr-14 00:15N 37°45' E 023°26'0 0.0
2018-Apr-13 23:43N 37°45' E 023°26'0 0.0
2018-Apr-13 23:13N 37°45' E 023°26'0 0.0
2018-Apr-13 22:49N 37°45' E 023°26'0 0.0
2018-Apr-13 22:26N 37°45' E 023°26'0 0.0
2018-Apr-13 21:44N 37°45' E 023°26'0 0.0
2018-Apr-13 21:19N 37°45' E 023°26'0 0.0
2018-Apr-13 19:49N 37°45' E 023°26'0 0.0
2018-Apr-13 19:25N 37°45' E 023°26'0 0.0
2018-Apr-13 18:49N 37°45' E 023°26'0 0.0
2018-Apr-13 18:24N 37°45' E 023°26'0 0.0
2018-Apr-13 18:00N 37°45' E 023°26'0 0.0
2018-Apr-13 17:30N 37°45' E 023°26'0 0.0
2018-Apr-13 16:58N 37°45' E 023°26'1 3.0
2018-Apr-13 16:30N 37°46' E 023°25'2 5.0
2018-Apr-13 16:00N 37°48' E 023°27'3 5.1
2018-Apr-13 15:30N 37°50' E 023°29'2 4.6
2018-Apr-13 14:59N 37°52' E 023°31'0 0.0
2018-Apr-13 14:30N 37°52' E 023°31'0 0.1
2018-Apr-13 14:00N 37°52' E 023°31'0 0.0
2018-Apr-13 13:30N 37°52' E 023°31'0 0.1
2018-Apr-13 12:58N 37°52' E 023°31'0 0.2
2018-Apr-13 12:28N 37°52' E 023°31'0 0.2
2018-Apr-13 11:58N 37°52' E 023°31'0 0.0
2018-Apr-13 11:28N 37°52' E 023°31'1 2.0
2018-Apr-13 11:00N 37°53' E 023°31'3 5.0
2018-Apr-13 10:30N 37°55' E 023°33'3 4.9
2018-Apr-13 09:59N 37°57' E 023°35'2 4.4
2018-Apr-13 09:30N 37°58' E 023°33'3 5.1
2018-Apr-13 09:01N 38°01' E 023°34'2 3.4
2018-Apr-13 08:29N 38°02' E 023°35'0 0.0
2018-Apr-13 07:59N 38°02' E 023°35'0 0.0
2018-Apr-13 07:29N 38°02' E 023°35'0 0.0
2018-Apr-13 06:58N 38°02' E 023°35'0 0.0
2018-Apr-13 06:30N 38°02' E 023°35'1 2.3
2018-Apr-13 06:00N 38°01' E 023°34'3 6.5
2018-Apr-13 05:30N 37°58' E 023°33'2 4.5
2018-Apr-13 05:00N 37°56' E 023°34'3 6.5
2018-Apr-13 04:30N 37°54' E 023°31'3 6.7
2018-Apr-13 04:00N 37°51' E 023°29'3 6.8
2018-Apr-13 03:30N 37°48' E 023°27'3 6.4
2018-Apr-13 03:00N 37°45' E 023°25'1 1.1
2018-Apr-13 02:28N 37°45' E 023°26'0 0.0
2018-Apr-13 01:59N 37°45' E 023°26'0 0.0
2018-Apr-13 01:30N 37°45' E 023°26'  

Dump ship's entire track history